createdAt,value
2023-01-28T00:01:10.191Z,-2.71
2023-01-28T00:03:39.744Z,-2.71
2023-01-28T00:06:08.950Z,-2.72
2023-01-28T00:08:36.817Z,-2.73
2023-01-28T00:11:06.576Z,-2.73
2023-01-28T00:13:35.765Z,-2.74
2023-01-28T00:16:04.790Z,-2.73
2023-01-28T00:18:34.360Z,-2.70
2023-01-28T00:21:06.480Z,-2.68
2023-01-28T00:23:36.083Z,-2.65
2023-01-28T00:26:04.832Z,-2.63
2023-01-28T00:28:35.190Z,-2.63
2023-01-28T00:31:24.969Z,-2.60
2023-01-28T00:33:55.629Z,-2.55
2023-01-28T00:36:27.053Z,-2.49
2023-01-28T00:38:58.363Z,-2.46
2023-01-28T00:41:28.071Z,-2.43
2023-01-28T00:43:55.160Z,-2.41
2023-01-28T00:46:22.907Z,-2.41
2023-01-28T00:48:51.308Z,-2.45
2023-01-28T00:51:21.848Z,-2.54
2023-01-28T00:53:53.790Z,-2.62
2023-01-28T00:56:22.397Z,-2.69
2023-01-28T00:58:49.682Z,-2.75
2023-01-28T01:01:23.588Z,-2.83
2023-01-28T01:03:57.147Z,-2.92
2023-01-28T01:06:27.251Z,-3.01
2023-01-28T01:08:55.124Z,-3.08
2023-01-28T01:11:23.113Z,-3.08
2023-01-28T01:13:59.709Z,-3.10
2023-01-28T01:16:28.804Z,-3.13
2023-01-28T01:18:59.130Z,-3.15
2023-01-28T01:21:32.171Z,-3.17
2023-01-28T01:24:01.408Z,-3.18
2023-01-28T01:26:32.239Z,-3.20
2023-01-28T01:29:02.404Z,-3.18
2023-01-28T01:31:31.282Z,-3.19
2023-01-28T01:34:02.416Z,-3.19
2023-01-28T01:36:32.561Z,-3.18
2023-01-28T01:39:00.861Z,-3.16
2023-01-28T01:41:31.179Z,-3.12
2023-01-28T01:44:03.073Z,-3.12
2023-01-28T01:46:39.836Z,-3.10
2023-01-28T01:49:25.861Z,-3.09
2023-01-28T01:52:03.413Z,-3.08
2023-01-28T01:54:30.705Z,-3.12
2023-01-28T01:56:57.955Z,-3.12
2023-01-28T01:59:27.830Z,-3.09
2023-01-28T02:01:57.629Z,-3.05
2023-01-28T02:04:27.453Z,-2.99
2023-01-28T02:06:55.844Z,-2.94
2023-01-28T02:09:35.808Z,-2.94
2023-01-28T02:12:24.796Z,-2.94
2023-01-28T05:57:01.614Z,-3.83
2023-01-28T05:59:33.222Z,-3.76
2023-01-28T06:02:04.880Z,-3.75
2023-01-28T06:04:36.330Z,-3.76
2023-01-28T06:07:07.205Z,-3.78
2023-01-28T06:09:41.203Z,-3.81
2023-01-28T06:12:10.738Z,-3.85
2023-01-28T06:14:55.393Z,-3.91
2023-01-28T06:17:45.368Z,-4.00
2023-01-28T06:20:27.828Z,-4.09
2023-01-28T06:23:04.022Z,-4.15
2023-01-28T06:25:36.522Z,-4.20
2023-01-28T06:28:12.767Z,-4.23
2023-01-28T06:30:42.692Z,-4.23
2023-01-28T06:33:11.213Z,-4.18
2023-01-28T06:35:39.713Z,-4.11
2023-01-28T06:38:09.012Z,-4.02
2023-01-28T06:40:40.059Z,-3.92
2023-01-28T06:43:08.418Z,-3.86
2023-01-28T06:45:39.164Z,-3.85
2023-01-28T06:48:12.459Z,-3.90
2023-01-28T06:50:42.468Z,-3.92
2023-01-28T06:53:11.205Z,-3.93
2023-01-28T06:55:39.671Z,-3.94
2023-01-28T06:58:08.122Z,-4.00
2023-01-28T07:00:39.128Z,-4.02
2023-01-28T07:03:07.714Z,-3.97
2023-01-28T07:05:41.201Z,-3.93
2023-01-28T07:08:10.612Z,-3.90
2023-01-28T07:10:39.445Z,-3.87
2023-01-28T07:13:11.228Z,-3.88
2023-01-28T07:15:39.967Z,-3.89
2023-01-28T07:18:11.070Z,-3.87
2023-01-28T07:20:43.240Z,-3.84
2023-01-28T07:23:18.699Z,-3.81
2023-01-28T07:25:48.673Z,-3.75
2023-01-28T07:28:24.227Z,-3.74
2023-01-28T07:30:54.213Z,-3.74
2023-01-28T07:33:26.608Z,-3.75
2023-01-28T07:35:58.538Z,-3.77
2023-01-28T07:41:10.127Z,-3.76
2023-01-28T07:43:39.634Z,-3.75
2023-01-28T07:46:10.457Z,-3.75
2023-01-28T07:48:39.030Z,-3.73
2023-01-28T07:51:09.136Z,-3.68
2023-01-28T07:53:37.864Z,-3.66
2023-01-28T07:56:07.806Z,-3.66
2023-01-28T07:58:36.847Z,-3.64
2023-01-28T08:01:06.124Z,-3.64
2023-01-28T08:03:34.865Z,-3.71
2023-01-28T08:06:03.279Z,-3.75
2023-01-28T08:08:32.513Z,-3.78
2023-01-28T08:11:12.131Z,-3.80
2023-01-28T08:13:41.945Z,-3.78
2023-01-28T08:16:10.679Z,-3.72
2023-01-28T08:18:41.820Z,-3.62
2023-01-28T08:21:10.376Z,-3.53
2023-01-28T08:23:40.145Z,-3.47
2023-01-28T08:26:10.858Z,-3.43
2023-01-28T08:28:41.096Z,-3.40
2023-01-28T08:31:10.301Z,-3.41
2023-01-28T08:33:38.874Z,-3.41
2023-01-28T08:36:08.772Z,-3.36
2023-01-28T08:38:40.405Z,-3.32
2023-01-28T08:41:12.888Z,-3.30
2023-01-28T08:43:44.964Z,-3.27
2023-01-28T08:46:14.207Z,-3.21
2023-01-28T08:48:47.147Z,-3.12
2023-01-28T08:51:15.498Z,-3.01
2023-01-28T08:53:47.457Z,-2.91
2023-01-28T08:56:22.978Z,-2.83
2023-01-28T08:58:54.936Z,-2.79
2023-01-28T09:01:35.267Z,-2.74
2023-01-28T09:04:04.499Z,-2.68
2023-01-28T09:06:37.758Z,-2.57
2023-01-28T09:09:09.610Z,-2.48
2023-01-28T09:13:42.583Z,-2.36
2023-01-28T09:16:15.460Z,-2.33
2023-01-28T09:18:54.917Z,-2.27
2023-01-28T09:21:37.582Z,-2.26
2023-01-28T09:24:06.705Z,-2.25
2023-01-28T09:26:36.034Z,-2.19
2023-01-28T09:29:05.023Z,-2.13
2023-01-28T09:32:02.032Z,-2.07
2023-01-28T09:34:35.177Z,-2.01
2023-01-28T09:37:29.201Z,-1.95
2023-01-28T09:40:12.908Z,-1.87
2023-01-28T09:42:48.775Z,-1.84
2023-01-28T09:45:49.933Z,-1.80
2023-01-28T09:48:37.110Z,-1.71
2023-01-28T09:51:12.646Z,-1.63
2023-01-28T14:01:22.661Z,2.20
2023-01-28T14:04:30.830Z,2.00
2023-01-28T14:07:25.429Z,1.85
2023-01-28T14:10:33.407Z,1.74
2023-01-28T14:13:57.515Z,1.62
2023-01-28T14:16:43.710Z,1.51
2023-01-28T14:19:13.786Z,1.42
2023-01-28T14:21:43.624Z,1.35
2023-01-28T14:24:16.449Z,1.29
2023-01-28T14:26:47.057Z,1.20
2023-01-28T14:29:56.225Z,1.12
2023-01-28T14:32:30.228Z,1.06
2023-01-28T14:35:02.858Z,1.04
2023-01-28T14:37:33.899Z,1.00
2023-01-28T14:40:17.737Z,0.94
2023-01-28T14:42:46.900Z,0.89
2023-01-28T14:45:36.697Z,0.85
2023-01-28T14:48:28.647Z,0.79
2023-01-28T14:51:04.567Z,0.72
2023-01-28T14:54:21.345Z,0.70
2023-01-28T14:57:22.622Z,0.68
2023-01-28T15:00:01.236Z,0.64
2023-01-28T15:02:29.342Z,0.55
2023-01-28T15:05:10.796Z,0.50
2023-01-28T15:07:38.076Z,0.45
2023-01-28T15:10:14.103Z,0.39
2023-01-28T15:12:48.024Z,0.33
2023-01-28T15:15:19.584Z,0.31
2023-01-28T15:17:47.017Z,0.29
2023-01-28T15:20:20.745Z,0.27
2023-01-28T15:22:52.590Z,0.24
2023-01-28T15:25:23.013Z,0.20
2023-01-28T15:27:51.782Z,0.18
2023-01-28T15:30:27.937Z,0.16
2023-01-28T15:33:02.574Z,0.13
2023-01-28T15:35:32.621Z,0.10
2023-01-28T15:38:02.444Z,0.07
2023-01-28T15:40:43.428Z,0.05
2023-01-28T15:43:22.005Z,-0.00
2023-01-28T15:52:14.483Z,-0.07
2023-01-28T15:54:46.184Z,-0.11
2023-01-28T15:57:27.675Z,-0.13
2023-01-28T16:00:13.565Z,-0.14
2023-01-28T16:03:08.910Z,-0.15
2023-01-28T16:05:43.598Z,-0.16
2023-01-28T16:08:25.245Z,-0.18
2023-01-28T16:10:59.809Z,-0.21
2023-01-28T16:13:36.276Z,-0.24
2023-01-28T16:16:05.508Z,-0.27
2023-01-28T16:18:42.449Z,-0.31
2023-01-28T16:21:13.064Z,-0.35
2023-01-28T16:24:14.844Z,-0.37
2023-01-28T16:26:43.627Z,-0.39
2023-01-28T16:29:16.178Z,-0.41
2023-01-28T16:31:49.902Z,-0.44
2023-01-28T16:34:21.550Z,-0.48
2023-01-28T16:37:00.061Z,-0.52
2023-01-28T16:39:31.312Z,-0.56
2023-01-28T16:42:01.417Z,-0.60
2023-01-28T16:44:33.785Z,-0.66
2023-01-28T16:47:04.869Z,-0.70
2023-01-28T16:49:37.589Z,-0.73
2023-01-28T16:52:11.562Z,-0.75
2023-01-28T16:54:46.480Z,-0.76
2023-01-28T16:57:20.289Z,-0.80
2023-01-28T16:59:50.019Z,-0.84
2023-01-28T17:02:20.848Z,-0.88
2023-01-28T17:05:06.291Z,-0.91
2023-01-28T17:07:38.951Z,-0.93
2023-01-28T17:10:13.270Z,-0.95
2023-01-28T17:12:45.115Z,-0.96
2023-01-28T17:15:18.921Z,-0.97
2023-01-28T17:17:59.966Z,-0.98
2023-01-28T17:20:37.584Z,-1.00
2023-01-28T17:23:09.958Z,-1.02
2023-01-28T17:25:43.673Z,-1.05
2023-01-28T17:28:13.198Z,-1.07
2023-01-28T17:30:50.695Z,-1.09
2023-01-28T17:33:23.203Z,-1.12
2023-01-28T17:35:59.728Z,-1.15
2023-01-28T17:38:33.650Z,-1.19
2023-01-28T17:41:08.793Z,-1.23
2023-01-28T17:43:43.359Z,-1.23
2023-01-28T17:46:15.187Z,-1.25
2023-01-28T17:48:46.209Z,-1.26
2023-01-28T17:51:14.700Z,-1.29
2023-01-28T17:53:50.757Z,-1.29
2023-01-28T22:03:40.032Z,-2.83
2023-01-28T22:06:09.703Z,-2.73
2023-01-28T22:08:41.763Z,-2.72
2023-01-28T22:11:11.950Z,-2.72
2023-01-28T22:13:45.470Z,-2.77
2023-01-28T22:16:18.450Z,-2.80
2023-01-28T22:18:50.440Z,-2.82
2023-01-28T22:21:33.638Z,-2.87
2023-01-28T22:24:03.979Z,-2.89
2023-01-28T22:26:35.797Z,-2.94
2023-01-28T22:29:10.586Z,-2.96
2023-01-28T22:31:41.923Z,-3.00
2023-01-28T22:34:11.895Z,-3.05
2023-01-28T22:36:44.163Z,-3.09
2023-01-28T22:39:15.224Z,-3.13
2023-01-28T22:41:44.557Z,-3.16
2023-01-28T22:44:13.203Z,-3.20
2023-01-28T22:46:41.761Z,-3.23
2023-01-28T22:49:12.642Z,-3.26
2023-01-28T22:51:41.909Z,-3.28
2023-01-28T22:54:16.223Z,-3.30
2023-01-28T22:56:50.149Z,-3.32
2023-01-28T22:59:21.991Z,-3.33
2023-01-28T23:01:50.645Z,-3.35
2023-01-28T23:04:21.875Z,-3.37
2023-01-28T23:06:50.630Z,-3.37
2023-01-28T23:09:19.526Z,-3.38
2023-01-28T23:11:48.540Z,-3.39
2023-01-28T23:14:37.315Z,-3.40
2023-01-28T23:17:30.004Z,-3.41
2023-01-28T23:20:17.379Z,-3.43
2023-01-28T23:23:07.227Z,-3.44
2023-01-28T23:25:38.087Z,-3.44
2023-01-28T23:28:07.018Z,-3.44
2023-01-28T23:30:44.909Z,-3.44
2023-01-28T23:33:15.819Z,-3.45
2023-01-28T23:41:43.375Z,-3.46
2023-01-28T23:44:18.776Z,-3.53
2023-01-28T23:46:47.105Z,-3.57
2023-01-28T23:49:15.464Z,-3.58
2023-01-28T23:51:45.728Z,-3.60
2023-01-28T23:54:16.854Z,-3.61
2023-01-28T23:56:45.984Z,-3.60
2023-01-28T23:59:17.929Z,-3.60
